createdAt,value
2022-07-27T00:10:19.857Z,985.2
2022-07-27T00:24:46.237Z,985.2
2022-07-27T00:39:15.240Z,985.3
2022-07-27T00:53:41.183Z,985.3
2022-07-27T01:08:09.513Z,985.3
2022-07-27T01:22:37.213Z,985.1
2022-07-27T01:37:04.603Z,985.1
2022-07-27T01:51:31.884Z,985.1
2022-07-27T02:06:00.321Z,985.1
2022-07-27T02:20:28.009Z,985.1
2022-07-27T02:34:53.025Z,985.2
2022-07-27T02:49:21.332Z,985.2
2022-07-27T03:03:47.787Z,985.3
2022-07-27T03:18:16.683Z,985.2
2022-07-27T03:32:44.208Z,985.3
2022-07-27T03:47:12.393Z,985.5
2022-07-27T04:01:40.104Z,985.4
2022-07-27T04:16:07.172Z,985.4
2022-07-27T04:30:35.907Z,985.4
2022-07-27T04:45:04.218Z,985.4
2022-07-27T04:59:32.641Z,985.5
2022-07-27T05:14:00.890Z,985.6
2022-07-27T05:28:34.738Z,985.7
2022-07-27T05:43:12.390Z,985.9
2022-07-27T05:57:32.887Z,986
2022-07-27T06:12:01.240Z,986
2022-07-27T06:26:29.801Z,986.1
2022-07-27T06:40:58.628Z,986.3
2022-07-27T06:55:27.362Z,986.3
2022-07-27T07:09:56.035Z,986.4
2022-07-27T07:24:25.228Z,986.3
2022-07-27T07:39:02.612Z,986.3
2022-07-27T07:53:42.149Z,986.3
2022-07-27T08:07:58.136Z,986.3
2022-07-27T08:22:34.446Z,986.4
2022-07-27T08:37:16.115Z,986.3
2022-07-27T08:51:47.582Z,986.4
2022-07-27T09:06:08.776Z,986.4
2022-07-27T09:20:32.057Z,986.6
2022-07-27T09:34:57.899Z,986.7
2022-07-27T09:49:25.954Z,986.6
2022-07-27T10:03:57.067Z,986.5
2022-07-27T10:18:25.956Z,986.6
2022-07-27T10:32:52.093Z,986.5
2022-07-27T10:47:21.976Z,986.5
2022-07-27T11:01:52.635Z,986.5
2022-07-27T11:16:26.215Z,986.5
2022-07-27T11:30:47.830Z,986.5
2022-07-27T11:45:19.114Z,986.5
2022-07-27T11:59:42.995Z,986.4
2022-07-27T12:14:12.579Z,986.3
2022-07-27T12:28:41.844Z,986
2022-07-27T12:43:03.848Z,986.2
2022-07-27T12:57:57.453Z,985.8
2022-07-27T13:12:12.737Z,985.8
2022-07-27T13:26:37.591Z,985.8
2022-07-27T13:41:01.482Z,986
2022-07-27T13:55:34.456Z,985.9
2022-07-27T14:10:03.102Z,985.9
2022-07-27T14:24:29.377Z,986
2022-07-27T14:38:55.679Z,985.9
2022-07-27T14:53:22.292Z,985.8
2022-07-27T15:07:49.322Z,985.7
2022-07-27T15:22:16.755Z,985.5
2022-07-27T15:36:52.490Z,985.5
2022-07-27T15:51:14.457Z,985.4
2022-07-27T16:05:46.874Z,985.5
2022-07-27T16:20:16.601Z,985.2
2022-07-27T16:34:41.133Z,985.1
2022-07-27T16:49:09.706Z,985
2022-07-27T17:03:37.409Z,985.1
2022-07-27T17:18:02.236Z,985.1
2022-07-27T17:32:30.399Z,985.2
2022-07-27T17:47:01.488Z,985
2022-07-27T18:01:48.928Z,985.1
2022-07-27T18:16:04.026Z,985.3
2022-07-27T18:30:30.154Z,985.3
2022-07-27T18:44:56.666Z,985.4
2022-07-27T18:59:22.751Z,985.4
2022-07-27T19:13:49.274Z,985.5
2022-07-27T19:28:16.212Z,985.5
2022-07-27T19:42:43.376Z,985.7
2022-07-27T19:57:10.121Z,985.7
2022-07-27T20:11:37.469Z,985.9
2022-07-27T20:26:04.513Z,985.8
2022-07-27T20:40:32.081Z,985.8
2022-07-27T20:54:59.760Z,985.8
2022-07-27T21:09:28.850Z,985.8
2022-07-27T21:23:56.197Z,985.9
2022-07-27T21:38:24.127Z,986
2022-07-27T21:52:51.122Z,986
2022-07-27T22:07:19.867Z,986
2022-07-27T22:21:45.223Z,986.1
2022-07-27T22:36:12.846Z,986
2022-07-27T22:50:40.040Z,985.9
2022-07-27T23:05:07.298Z,986
2022-07-27T23:19:34.444Z,985.9
2022-07-27T23:34:02.031Z,985.9
2022-07-27T23:48:30.083Z,986
